All Spectrum Aviation - Van Nuys Airport - KVNY

HOME

Condor Squadron KVNY Webcam

Visit our Electronics Store

Condor Squadron Webcam - Van Nuys Airport - KVNY
Picture taken: Sun, 18 Apr 2021 02:32:41 -0700
YouTube Channel!    Latest Timelapse Movie    Full Size Image    Regular Size Image    

2021/04/18 08:51 KVNY 180851Z AUTO 00000KT 10SM CLR 16/07 A2998 RMK AO2 SLP144 T01610067 51004

HOME

Condor Squadron KVNY Webcam

Visit our Electronics Store